Dauphin Barker Airport
CYDN : rendu visible

Aérodrome :











RETROUVEZ-NOUS SUR...

 
LOGIN :

S'inscrire | Disclaimer

   EN    FR    IT 

 









Légende :    VFR   VFR Marginal   IFR   IFR Intensif   IFR Très Intensif
Visi : 
Plafond : 
>= 8 km
>= 3000ft
5 à 8 km
1000 à 3000 ft
1500m à 5 km
500 à 1000 ft
800 à 1500m
200 à 500 ft
< 800m
< 200 ft
Symboles :   Orages  Brouillard  Fortes neiges  Fortes précipitations  Vent > 20 kt






- Altitude de l'aérodrome : 999 ft
- Code IATA : YDN


CYDN - Dauphin Barker

DERNIER METAR :
  • 222200Z AUTO 25013G22KT 9SM CLR 05/M05 A2954 RMK SLP020

METARs EXPIRÉS :
  • 222100Z AUTO 26016G24KT 9SM CLR 06/M05 A2955 RMK SLP023
  • 222000Z AUTO 27015G20KT 9SM CLR 07/M04 A2958 RMK SLP032

TAF TAF CYDN
Valide du 22 à 18h jusqu'au 23 à 06h UTC


221740Z 2218/2306 24012G22KT P6SM FEW240
FM230300 26015KT P6SM SCT080 RMK FCST BASED ON AUTO OBS. NXT FCST BY 230000Z



MET'MAP, la Météo Aéronautique d'un coup d'oeil ! - Copyright ORBIFLY Décembre 2007 - Disclaimer

ORBIFLY MET'MAP TEAM :

Programmation & Développement : Alexandra Zaïnal
Conception & Développement : Baudouin d'Aumeries
Co-Programmation & Développement : Marc-Olivier Méhu
Soutien technique & logistique : Manuel Goepfert

Contact : metmap@orbifly.com




SOURCES & CREDITS :

   NOAA       Earth
Advisory